createdAt,value
2022-07-25T00:00:12.762Z,3.13
2022-07-25T00:03:55.186Z,3.85
2022-07-25T00:07:38.550Z,3.40
2022-07-25T00:11:20.432Z,3.13
2022-07-25T00:15:02.540Z,3.67
2022-07-25T00:18:44.567Z,3.78
2022-07-25T00:22:26.486Z,3.10
2022-07-25T00:26:08.375Z,3.60
2022-07-25T00:29:50.547Z,3.00
2022-07-25T00:33:32.396Z,3.72
2022-07-25T00:37:14.260Z,3.75
2022-07-25T00:40:56.305Z,3.63
2022-07-25T00:44:38.150Z,3.60
2022-07-25T00:48:20.012Z,4.10
2022-07-25T00:52:01.930Z,4.00
2022-07-25T00:55:43.921Z,4.15
2022-07-25T00:59:25.880Z,4.38
2022-07-25T01:03:08.032Z,4.07
2022-07-25T01:06:49.935Z,4.22
2022-07-25T01:10:32.970Z,4.13
2022-07-25T01:14:14.806Z,4.00
2022-07-25T01:17:56.686Z,4.55
2022-07-25T01:21:39.992Z,4.00
2022-07-25T01:25:22.898Z,4.68
2022-07-25T01:29:05.380Z,4.88
2022-07-25T01:32:47.937Z,4.88
2022-07-25T01:36:29.856Z,4.28
2022-07-25T01:40:12.919Z,4.15
2022-07-25T01:43:54.811Z,4.60
2022-07-25T01:47:36.881Z,4.28
2022-07-25T01:51:20.414Z,4.20
2022-07-25T01:55:02.543Z,4.05
2022-07-25T01:58:44.444Z,4.07
2022-07-25T02:02:26.876Z,3.78
2022-07-25T02:06:08.915Z,4.28
2022-07-25T02:09:54.872Z,4.18
2022-07-25T02:13:38.600Z,4.32
2022-07-25T02:17:20.501Z,4.53
2022-07-25T02:21:02.514Z,3.92
2022-07-25T02:24:44.467Z,3.60
2022-07-25T02:28:26.495Z,3.25
2022-07-25T02:32:08.303Z,2.53
2022-07-25T02:35:50.417Z,2.22
2022-07-25T02:39:32.315Z,3.08
2022-07-25T02:43:14.286Z,2.20
2022-07-25T02:46:57.473Z,2.80
2022-07-25T02:50:39.692Z,2.55
2022-07-25T02:54:21.507Z,1.70
2022-07-25T02:58:03.397Z,2.67
2022-07-25T03:01:45.355Z,2.35
2022-07-25T03:05:27.372Z,2.63
2022-07-25T03:09:09.446Z,1.98
2022-07-25T03:12:51.304Z,2.08
2022-07-25T03:16:33.166Z,1.58
2022-07-25T03:20:15.046Z,1.88
2022-07-25T03:23:56.878Z,1.90
2022-07-25T03:27:39.290Z,1.85
2022-07-25T03:31:21.172Z,1.30
2022-07-25T03:35:03.061Z,2.03
2022-07-25T03:38:44.968Z,2.70
2022-07-25T03:42:26.999Z,1.67
2022-07-25T03:46:08.988Z,1.80
2022-07-25T03:49:51.091Z,1.60
2022-07-25T03:53:33.084Z,1.70
2022-07-25T03:57:14.888Z,1.38
2022-07-25T04:00:56.717Z,1.05
2022-07-25T04:04:40.506Z,2.00
2022-07-25T04:08:22.366Z,1.58
2022-07-25T04:12:04.561Z,1.48
2022-07-25T04:15:46.586Z,1.67
2022-07-25T04:19:28.955Z,1.60
2022-07-25T04:23:10.917Z,1.40
2022-07-25T04:26:52.922Z,1.67
2022-07-25T04:30:34.840Z,1.30
2022-07-25T04:34:16.841Z,2.05
2022-07-25T04:37:58.745Z,1.20
2022-07-25T04:41:40.834Z,1.50
2022-07-25T04:45:23.594Z,1.10
2022-07-25T04:49:05.507Z,1.15
2022-07-25T04:52:47.545Z,1.10
2022-07-25T04:56:29.421Z,1.52
2022-07-25T05:00:11.938Z,1.10
2022-07-25T05:03:53.744Z,0.85
2022-07-25T05:07:36.986Z,0.85
2022-07-25T05:11:18.831Z,1.08
2022-07-25T05:15:00.723Z,1.50
2022-07-25T05:18:42.631Z,1.20
2022-07-25T05:22:28.302Z,1.88
2022-07-25T05:26:10.946Z,1.20
2022-07-25T05:29:52.811Z,1.00
2022-07-25T05:33:35.113Z,1.55
2022-07-25T05:37:17.021Z,1.05
2022-07-25T05:40:58.919Z,1.23
2022-07-25T05:44:40.737Z,1.08
2022-07-25T05:48:22.568Z,1.13
2022-07-25T05:52:07.291Z,0.80
2022-07-25T05:55:52.904Z,1.17
2022-07-25T05:59:34.907Z,1.65
2022-07-25T06:03:18.447Z,1.17
2022-07-25T06:07:01.515Z,0.90
2022-07-25T06:10:43.367Z,0.73
2022-07-25T06:14:25.202Z,0.95
2022-07-25T06:18:07.099Z,1.30
2022-07-25T06:21:49.150Z,0.93
2022-07-25T06:25:31.277Z,0.70
2022-07-25T06:29:13.876Z,0.95
2022-07-25T06:32:55.885Z,1.33
2022-07-25T06:36:38.195Z,1.10
2022-07-25T06:40:20.302Z,0.73
2022-07-25T06:44:02.574Z,0.70
2022-07-25T06:47:45.325Z,1.40
2022-07-25T06:51:27.246Z,0.68
2022-07-25T06:55:10.277Z,1.23
2022-07-25T06:58:53.394Z,0.60
2022-07-25T07:02:36.577Z,0.77
2022-07-25T07:06:18.478Z,1.00
2022-07-25T07:10:00.314Z,1.23
2022-07-25T07:13:42.470Z,0.90
2022-07-25T07:17:24.344Z,1.15
2022-07-25T07:21:06.673Z,1.70
2022-07-25T07:24:49.774Z,1.02
2022-07-25T07:28:32.084Z,1.00
2022-07-25T07:32:13.972Z,0.60
2022-07-25T07:35:58.788Z,1.02
2022-07-25T07:39:40.625Z,0.73
2022-07-25T07:43:27.682Z,0.73
2022-07-25T07:47:14.536Z,0.80
2022-07-25T07:50:57.116Z,0.55
2022-07-25T07:54:59.460Z,0.60
2022-07-25T07:58:41.489Z,0.60
2022-07-25T08:02:23.389Z,0.60
2022-07-25T08:06:05.735Z,0.63
2022-07-25T08:09:47.609Z,0.70
2022-07-25T08:13:32.021Z,0.85
2022-07-25T08:21:00.365Z,1.10
2022-07-25T08:24:42.203Z,0.77
2022-07-25T08:28:24.053Z,0.52
2022-07-25T08:32:05.976Z,0.60
2022-07-25T08:35:51.747Z,0.55
2022-07-25T08:39:33.615Z,0.90
2022-07-25T08:43:17.257Z,0.63
2022-07-25T08:47:00.498Z,1.17
2022-07-25T08:50:42.920Z,0.68
2022-07-25T08:54:24.950Z,0.70
2022-07-25T08:58:06.790Z,0.73
2022-07-25T09:01:48.781Z,0.63
2022-07-25T09:05:32.029Z,0.38
2022-07-25T09:09:13.879Z,0.65
2022-07-25T09:13:00.936Z,0.80
2022-07-25T09:16:45.516Z,0.30
2022-07-25T09:20:54.953Z,0.70
2022-07-25T09:24:36.791Z,0.50
2022-07-25T09:28:19.913Z,0.40
2022-07-25T09:32:13.369Z,0.80
2022-07-25T09:35:56.457Z,0.70
2022-07-25T09:39:46.000Z,0.80
2022-07-25T09:43:40.308Z,0.60
2022-07-25T09:47:22.212Z,0.57
2022-07-25T09:51:04.584Z,0.47
2022-07-25T09:54:46.411Z,0.50
2022-07-25T09:58:29.352Z,0.80
2022-07-25T10:02:53.100Z,0.80
2022-07-25T10:06:59.689Z,0.80
2022-07-25T10:10:42.415Z,0.93
2022-07-25T10:14:24.238Z,0.98
2022-07-25T10:18:08.321Z,0.77
2022-07-25T10:21:55.810Z,0.93
2022-07-25T10:25:38.873Z,1.00
2022-07-25T10:29:20.669Z,0.70
2022-07-25T10:33:04.422Z,1.23
2022-07-25T10:36:48.321Z,1.35
2022-07-25T10:40:44.475Z,1.23
2022-07-25T10:44:30.547Z,0.90
2022-07-25T10:48:21.879Z,0.80
2022-07-25T10:52:04.813Z,0.90
2022-07-25T10:56:05.637Z,0.60
2022-07-25T10:59:48.468Z,0.88
2022-07-25T11:03:33.813Z,1.15
2022-07-25T11:07:20.227Z,1.15
2022-07-25T11:11:02.726Z,0.98
2022-07-25T11:14:44.645Z,0.93
2022-07-25T11:18:40.444Z,0.90
2022-07-25T11:22:22.901Z,1.33
2022-07-25T11:26:11.851Z,0.80
2022-07-25T11:30:09.294Z,1.10
2022-07-25T11:33:51.364Z,1.30
2022-07-25T11:37:39.125Z,0.85
2022-07-25T11:41:31.010Z,0.93
2022-07-25T11:45:33.773Z,1.05
2022-07-25T11:49:15.892Z,1.15
2022-07-25T11:53:02.685Z,1.20
2022-07-25T11:56:47.140Z,1.25
2022-07-25T12:00:29.665Z,1.55
2022-07-25T12:04:19.445Z,0.82
2022-07-25T12:08:12.950Z,1.10
2022-07-25T12:12:03.762Z,1.30
2022-07-25T12:15:45.585Z,1.27
2022-07-25T12:19:27.443Z,0.85
2022-07-25T12:23:11.254Z,1.10
2022-07-25T12:26:53.099Z,0.93
2022-07-25T12:30:35.111Z,0.93
2022-07-25T12:34:16.971Z,1.45
2022-07-25T12:37:58.999Z,1.88
2022-07-25T12:41:42.684Z,1.50
2022-07-25T12:45:25.182Z,1.17
2022-07-25T12:49:07.342Z,1.60
2022-07-25T12:52:49.335Z,1.60
2022-07-25T12:56:31.239Z,1.40
2022-07-25T13:00:16.530Z,1.10
2022-07-25T13:03:58.507Z,0.75
2022-07-25T13:07:40.356Z,1.38
2022-07-25T13:11:22.183Z,0.75
2022-07-25T13:15:04.902Z,1.02
2022-07-25T13:18:46.824Z,1.13
2022-07-25T13:22:28.828Z,1.02
2022-07-25T13:26:10.933Z,0.93
2022-07-25T13:29:54.773Z,1.40
2022-07-25T13:33:36.941Z,1.13
2022-07-25T13:37:18.828Z,0.95
2022-07-25T13:41:02.674Z,0.47
2022-07-25T13:44:44.508Z,0.57
2022-07-25T13:48:30.355Z,0.60
2022-07-25T13:52:13.341Z,0.90
2022-07-25T13:55:56.987Z,0.90
2022-07-25T13:59:38.855Z,1.13
2022-07-25T14:03:20.950Z,0.90
2022-07-25T14:07:03.013Z,0.90
2022-07-25T14:10:44.908Z,1.33
2022-07-25T14:14:26.921Z,1.55
2022-07-25T14:18:09.758Z,0.85
2022-07-25T14:21:51.671Z,1.10
2022-07-25T14:25:33.538Z,0.73
2022-07-25T14:29:15.770Z,1.00
2022-07-25T14:32:57.677Z,1.00
2022-07-25T14:36:39.796Z,1.30
2022-07-25T14:40:22.159Z,1.08
2022-07-25T14:44:04.288Z,1.30
2022-07-25T14:47:47.531Z,1.70
2022-07-25T14:51:30.531Z,3.45
2022-07-25T14:55:12.385Z,1.30
2022-07-25T14:58:54.285Z,0.85
2022-07-25T15:02:36.134Z,0.80
2022-07-25T15:06:18.387Z,0.85
2022-07-25T15:10:00.553Z,0.82
2022-07-25T15:13:42.374Z,1.45
2022-07-25T15:17:24.235Z,0.88
2022-07-25T15:21:06.281Z,0.95
2022-07-25T15:25:23.042Z,0.90
2022-07-25T15:28:50.160Z,1.00
2022-07-25T15:32:32.056Z,1.02
2022-07-25T15:36:13.908Z,0.90
2022-07-25T15:39:56.117Z,0.57
2022-07-25T15:43:39.202Z,0.80
2022-07-25T15:47:21.071Z,0.70
2022-07-25T15:51:02.946Z,1.27
2022-07-25T15:54:45.057Z,0.90
2022-07-25T15:58:27.143Z,0.70
2022-07-25T16:02:13.082Z,1.13
2022-07-25T16:09:38.601Z,0.68
2022-07-25T16:13:20.404Z,0.88
2022-07-25T16:17:03.080Z,0.80
2022-07-25T16:20:44.889Z,0.70
2022-07-25T16:24:26.733Z,0.75
2022-07-25T16:28:08.594Z,0.65
2022-07-25T16:31:50.510Z,0.70
2022-07-25T16:35:32.787Z,1.10
2022-07-25T16:39:14.931Z,1.00
2022-07-25T16:42:58.902Z,0.95
2022-07-25T16:46:41.431Z,0.90
2022-07-25T16:50:23.607Z,0.93
2022-07-25T16:54:05.536Z,0.85
2022-07-25T16:57:47.467Z,1.30
2022-07-25T17:01:29.330Z,1.20
2022-07-25T17:05:11.307Z,1.40
2022-07-25T17:08:53.264Z,0.85
2022-07-25T17:12:35.327Z,1.58
2022-07-25T17:16:17.200Z,1.00
2022-07-25T17:20:00.159Z,1.00
2022-07-25T17:23:42.302Z,1.08
2022-07-25T17:27:24.320Z,1.50
2022-07-25T17:31:06.441Z,1.33
2022-07-25T17:34:48.421Z,1.35
2022-07-25T17:38:34.881Z,1.35
2022-07-25T17:42:22.265Z,1.50
2022-07-25T17:46:04.379Z,1.27
2022-07-25T17:49:46.602Z,0.50
2022-07-25T17:53:28.585Z,0.88
2022-07-25T17:57:10.715Z,0.57
2022-07-25T18:00:54.028Z,0.50
2022-07-25T18:08:22.156Z,0.50
2022-07-25T18:12:05.827Z,0.70
2022-07-25T18:15:48.198Z,0.75
2022-07-25T18:19:30.080Z,0.45
2022-07-25T18:23:12.070Z,0.35
2022-07-25T18:26:53.999Z,0.30
2022-07-25T18:30:35.863Z,0.38
2022-07-25T18:34:20.760Z,0.47
2022-07-25T18:38:02.816Z,0.47
2022-07-25T18:41:44.738Z,0.38
2022-07-25T18:45:26.660Z,0.30
2022-07-25T18:49:08.848Z,0.60
2022-07-25T18:52:50.849Z,0.30
2022-07-25T18:56:32.964Z,0.20
2022-07-25T19:00:16.218Z,0.30
2022-07-25T19:03:58.108Z,0.28
2022-07-25T19:07:40.053Z,0.40
2022-07-25T19:11:23.093Z,0.40
2022-07-25T19:15:05.937Z,0.60
2022-07-25T19:18:47.826Z,0.43
2022-07-25T19:22:29.713Z,0.47
2022-07-25T19:26:11.690Z,0.30
2022-07-25T19:29:54.806Z,0.30
2022-07-25T19:33:37.464Z,0.28
2022-07-25T19:37:19.262Z,0.30
2022-07-25T19:41:01.918Z,0.25
2022-07-25T19:44:43.749Z,0.63
2022-07-25T19:48:25.685Z,0.32
2022-07-25T19:52:09.104Z,0.30
2022-07-25T19:55:51.044Z,0.30
2022-07-25T19:59:33.186Z,0.30
2022-07-25T20:03:15.665Z,0.40
2022-07-25T20:06:59.507Z,0.60
2022-07-25T20:10:41.551Z,0.35
2022-07-25T20:14:24.099Z,0.60
2022-07-25T20:18:05.938Z,0.60
2022-07-25T20:21:48.671Z,0.52
2022-07-25T20:25:30.555Z,0.73
2022-07-25T20:29:12.727Z,0.40
2022-07-25T20:32:54.555Z,0.50
2022-07-25T20:36:36.444Z,0.38
2022-07-25T20:40:19.404Z,0.40
2022-07-25T20:44:02.568Z,0.40
2022-07-25T20:47:44.851Z,0.30
2022-07-25T20:51:26.960Z,0.35
2022-07-25T20:55:09.051Z,0.32
2022-07-25T20:58:51.091Z,0.50
2022-07-25T21:02:33.666Z,0.43
2022-07-25T21:06:15.699Z,0.40
2022-07-25T21:09:57.535Z,0.60
2022-07-25T21:13:39.529Z,0.63
2022-07-25T21:17:21.353Z,0.40
2022-07-25T21:21:03.395Z,0.60
2022-07-25T21:24:45.319Z,0.40
2022-07-25T21:28:27.142Z,0.60
2022-07-25T21:32:09.230Z,0.55
2022-07-25T21:35:53.540Z,1.48
2022-07-25T21:39:35.883Z,0.70
2022-07-25T21:43:17.787Z,0.80
2022-07-25T21:46:59.633Z,0.60
2022-07-25T21:50:43.751Z,0.70
2022-07-25T21:54:26.142Z,0.75
2022-07-25T21:58:08.369Z,0.77
2022-07-25T22:01:50.204Z,0.60
2022-07-25T22:05:32.127Z,0.57
2022-07-25T22:09:13.955Z,0.55
2022-07-25T22:12:55.801Z,0.77
2022-07-25T22:16:37.869Z,0.60
2022-07-25T22:20:20.292Z,0.68
2022-07-25T22:24:02.092Z,0.90
2022-07-25T22:27:44.382Z,0.80
2022-07-25T22:31:26.468Z,1.13
2022-07-25T22:35:08.863Z,0.65
2022-07-25T22:38:50.814Z,0.50
2022-07-25T22:42:32.664Z,0.50
2022-07-25T22:46:15.459Z,1.00
2022-07-25T22:49:57.550Z,0.80
2022-07-25T22:53:39.416Z,0.77
2022-07-25T22:57:21.373Z,0.80
2022-07-25T23:01:03.189Z,0.60
2022-07-25T23:04:45.015Z,0.77
2022-07-25T23:08:27.085Z,0.73
2022-07-25T23:12:09.256Z,0.77
2022-07-25T23:15:51.516Z,0.55
2022-07-25T23:19:33.811Z,0.98
2022-07-25T23:23:15.806Z,0.77
2022-07-25T23:26:57.646Z,1.25
2022-07-25T23:30:40.637Z,1.13
2022-07-25T23:34:22.544Z,0.70
2022-07-25T23:38:04.446Z,0.95
2022-07-25T23:41:46.343Z,0.60
2022-07-25T23:45:28.666Z,0.85
2022-07-25T23:49:11.206Z,0.80
2022-07-25T23:52:53.600Z,1.27
2022-07-25T23:56:35.459Z,1.00
